Time;durP1;ratioP1;P1;durP2;ratioP2;P2;SDS_P1;SDS_P2;PMS_P1;PMS_P2;Temp;Humidity;BMP_temperature;BMP_pressure;BME280_temperature;BME280_humidity;BME280_pressure;Samples;Min_cycle;Max_cycle;Signal;HPM_P1;HPM_P2
2022/03/26 00:01:52;;;;;;;29.27;15.03;;;;;;;12.84;35.79;101774.31;5108293;28;20248;-67
2022/03/26 00:04:20;;;;;;;28.53;14.80;;;;;;;12.64;36.27;101769.84;5105995;27;20600;-65
2022/03/26 00:06:48;;;;;;;31.30;14.57;;;;;;;12.79;35.72;101771.22;5107957;28;20202;-66
2022/03/26 00:09:16;;;;;;;30.00;14.73;;;;;;;12.75;35.80;101772.47;5111549;28;20307;-65
2022/03/26 00:11:45;;;;;;;27.87;14.53;;;;;;;12.78;36.16;101774.84;5106017;28;20202;-65
2022/03/26 00:14:13;;;;;;;28.53;14.90;;;;;;;12.68;35.95;101772.13;5105232;28;20209;-64
2022/03/26 00:16:40;;;;;;;28.17;15.00;;;;;;;12.72;36.15;101770.91;5104771;28;20236;-66
2022/03/26 00:19:08;;;;;;;31.10;14.67;;;;;;;12.74;36.12;101774.28;5107017;28;20214;-66
2022/03/26 00:21:36;;;;;;;33.67;14.40;;;;;;;12.63;36.27;101774.34;5112313;27;20227;-65
2022/03/26 00:24:04;;;;;;;29.87;15.57;;;;;;;12.70;36.18;101772.84;5108867;28;20201;-66
2022/03/26 00:26:32;;;;;;;34.93;15.67;;;;;;;12.69;36.16;101776.47;5105911;27;20330;-65
2022/03/26 00:29:01;;;;;;;26.73;14.67;;;;;;;12.54;36.40;101776.94;5102952;27;20298;-65
2022/03/26 00:31:29;;;;;;;28.10;14.43;;;;;;;12.59;36.37;101777.38;5100986;28;20232;-65
2022/03/26 00:33:57;;;;;;;33.60;15.60;;;;;;;12.53;36.47;101776.06;5109016;28;20666;-65
2022/03/26 00:36:29;;;;;;;33.50;14.80;;;;;;;12.30;37.17;101785.16;5109595;27;20263;-65
2022/03/26 00:38:57;;;;;;;25.60;13.90;;;;;;;12.47;36.73;101779.25;5104439;28;20247;-64
2022/03/26 00:41:25;;;;;;;25.27;13.87;;;;;;;12.54;36.70;101777.78;5107434;28;20700;-64
2022/03/26 00:43:53;;;;;;;28.33;14.67;;;;;;;12.48;36.78;101780.97;5106229;28;20298;-65
2022/03/26 00:46:22;;;;;;;29.33;13.80;;;;;;;12.49;36.72;101779.16;5108578;28;20241;-66
2022/03/26 00:48:50;;;;;;;30.07;14.40;;;;;;;12.38;37.00;101778.22;5100972;28;20576;-65
2022/03/26 00:51:18;;;;;;;29.63;14.40;;;;;;;12.38;37.12;101772.06;5100170;28;20225;-64
2022/03/26 00:53:46;;;;;;;26.23;14.00;;;;;;;12.39;36.95;101774.59;5091026;28;20678;-65
2022/03/26 00:56:15;;;;;;;30.90;14.77;;;;;;;12.18;37.51;101779.03;5107389;28;20544;-65
2022/03/26 00:58:43;;;;;;;31.17;15.03;;;;;;;12.18;37.70;101772.84;5104428;28;20209;-65
2022/03/26 01:01:11;;;;;;;31.63;14.07;;;;;;;12.20;37.51;101769.09;5106046;28;20204;-65
2022/03/26 01:03:53;;;;;;;33.97;15.63;;;;;;;12.28;37.54;101760.50;5104362;28;20250;-65
2022/03/26 01:06:21;;;;;;;30.00;15.07;;;;;;;12.20;37.44;101774.44;5102696;28;20216;-65
2022/03/26 01:08:48;;;;;;;33.07;14.63;;;;;;;12.20;37.55;101771.78;5099293;28;20240;-65
2022/03/26 01:11:17;;;;;;;31.63;16.13;;;;;;;12.22;37.46;101763.66;5103338;28;20209;-65
2022/03/26 01:13:48;;;;;;;26.37;14.17;;;;;;;12.24;37.73;101761.69;5107908;28;20206;-65
2022/03/26 01:16:16;;;;;;;27.37;14.73;;;;;;;12.18;37.55;101759.56;5107019;28;20205;-64
2022/03/26 01:18:47;;;;;;;28.90;15.23;;;;;;;12.18;37.73;101763.06;5106964;28;20214;-64
2022/03/26 01:21:18;;;;;;;29.80;14.07;;;;;;;12.22;37.73;101767.19;5099197;28;20278;-64
2022/03/26 01:23:51;;;;;;;28.53;14.33;;;;;;;12.12;37.70;101768.06;5103502;28;20210;-64
2022/03/26 01:26:19;;;;;;;31.57;15.00;;;;;;;12.13;37.80;101759.97;5101675;28;20308;-64
2022/03/26 01:28:53;;;;;;;25.30;13.23;;;;;;;12.08;37.89;101759.47;5101371;28;20231;-65
2022/03/26 01:31:22;;;;;;;31.93;13.77;;;;;;;12.07;38.00;101768.41;5101817;28;20684;-66
2022/03/26 01:33:52;;;;;;;25.97;13.53;;;;;;;12.03;37.97;101767.84;5103020;28;20651;-65
2022/03/26 01:36:19;;;;;;;32.73;14.93;;;;;;;12.01;37.90;101768.94;5099285;28;20245;-66
2022/03/26 01:38:47;;;;;;;30.03;15.40;;;;;;;11.99;38.13;101765.53;5099497;28;20228;-65
2022/03/26 01:41:21;;;;;;;33.47;15.87;;;;;;;11.97;37.88;101759.50;5096777;28;20297;-65
2022/03/26 01:43:49;;;;;;;28.07;14.60;;;;;;;11.96;38.03;101771.13;5103297;28;20226;-64
2022/03/26 01:46:19;;;;;;;29.97;14.93;;;;;;;11.87;38.35;101761.25;5104007;28;20209;-64
2022/03/26 01:48:48;;;;;;;30.30;14.87;;;;;;;11.84;38.04;101766.81;5097521;28;20235;-65
2022/03/26 01:51:17;;;;;;;33.03;14.77;;;;;;;11.85;38.22;101765.84;5100264;28;20388;-65
2022/03/26 01:53:48;;;;;;;27.23;14.67;;;;;;;11.81;38.39;101772.38;5101770;28;20292;-64
2022/03/26 01:56:17;;;;;;;28.30;14.73;;;;;;;11.81;38.48;101775.03;5100017;28;20253;-65
2022/03/26 01:58:46;;;;;;;26.50;14.90;;;;;;;11.80;38.43;101775.97;5100582;28;20220;-64
2022/03/26 02:01:14;;;;;;;31.70;14.40;;;;;;;11.81;38.36;101777.69;5100221;27;20209;-63
2022/03/26 02:03:42;;;;;;;28.53;15.30;;;;;;;11.82;38.37;101790.00;5106687;27;20237;-64
2022/03/26 02:06:10;;;;;;;31.60;15.23;;;;;;;11.81;38.33;101788.31;5105611;28;20257;-63
2022/03/26 02:08:39;;;;;;;32.13;16.30;;;;;;;11.76;38.52;101782.53;5105562;28;20282;-64
2022/03/26 02:11:07;;;;;;;34.43;15.73;;;;;;;11.78;38.62;101778.78;5101912;27;20247;-65
2022/03/26 02:13:52;;;;;;;34.47;16.97;;;;;;;11.69;38.53;101785.66;5104732;27;20234;-63
2022/03/26 02:16:20;;;;;;;31.60;16.20;;;;;;;11.60;38.89;101786.41;5102534;28;20248;-65
2022/03/26 02:18:48;;;;;;;35.93;16.10;;;;;;;11.66;38.53;101785.91;5105177;28;20569;-64
2022/03/26 02:21:19;;;;;;;31.80;16.63;;;;;;;11.65;38.76;101783.34;5101024;27;20203;-65
2022/03/26 02:23:47;;;;;;;34.23;15.97;;;;;;;11.65;38.91;101768.25;5101933;28;20228;-64
2022/03/26 02:26:16;;;;;;;30.17;15.03;;;;;;;11.64;38.87;101771.88;5105115;27;20301;-65
2022/03/26 02:28:45;;;;;;;33.07;16.47;;;;;;;11.66;38.92;101769.97;5100483;27;20296;-64
2022/03/26 02:31:13;;;;;;;27.10;16.00;;;;;;;11.66;38.95;101769.97;5101049;27;20548;-64
2022/03/26 02:33:42;;;;;;;39.70;17.93;;;;;;;11.56;39.26;101765.50;5104880;28;20208;-63
2022/03/26 02:36:11;;;;;;;28.10;14.80;;;;;;;11.61;39.03;101769.47;5107048;27;20662;-64
2022/03/26 02:38:41;;;;;;;34.70;16.27;;;;;;;11.58;39.09;101766.22;5101859;27;20246;-65
2022/03/26 02:41:09;;;;;;;33.03;15.13;;;;;;;11.58;39.19;101767.06;5103474;27;20235;-65
2022/03/26 02:43:37;;;;;;;33.63;16.73;;;;;;;11.56;39.13;101771.66;5099549;27;20225;-65
2022/03/26 02:46:05;;;;;;;34.03;16.30;;;;;;;11.49;39.26;101753.69;5103281;27;20320;-65
2022/03/26 02:48:34;;;;;;;33.37;16.77;;;;;;;11.52;39.03;101756.09;5100607;28;20206;-65
2022/03/26 02:51:02;;;;;;;34.23;14.93;;;;;;;11.50;39.32;101761.53;5100352;27;20211;-64
2022/03/26 02:53:29;;;;;;;32.37;16.30;;;;;;;11.48;39.28;101758.16;5103526;28;20340;-65
2022/03/26 02:56:01;;;;;;;30.90;15.57;;;;;;;11.51;39.24;101759.72;5103796;28;20304;-64
2022/03/26 02:58:31;;;;;;;28.93;15.83;;;;;;;11.46;39.34;101752.09;5099863;27;20205;-64
2022/03/26 03:00:59;;;;;;;33.20;16.43;;;;;;;11.26;39.79;101745.72;5102376;28;20296;-65
2022/03/26 03:03:27;;;;;;;31.37;15.97;;;;;;;11.38;39.63;101749.22;5102675;28;20233;-66
2022/03/26 03:05:55;;;;;;;33.33;16.60;;;;;;;11.25;39.92;101745.88;5102669;27;20203;-65
2022/03/26 03:08:24;;;;;;;30.47;15.13;;;;;;;11.24;39.85;101746.81;5104542;27;20312;-65
2022/03/26 03:10:52;;;;;;;34.53;16.83;;;;;;;11.34;39.76;101750.44;5101187;27;20199;-65
2022/03/26 03:13:22;;;;;;;33.77;16.03;;;;;;;11.36;39.54;101751.16;5101848;28;20262;-64
2022/03/26 03:15:50;;;;;;;32.27;16.03;;;;;;;11.08;40.12;101743.69;5101695;27;20200;-64
2022/03/26 03:18:20;;;;;;;35.03;16.40;;;;;;;11.25;39.92;101732.59;5100974;28;20252;-64
2022/03/26 03:20:48;;;;;;;33.83;16.03;;;;;;;11.25;39.83;101727.28;5104778;27;20494;-62
2022/03/26 03:23:16;;;;;;;29.30;15.60;;;;;;;11.22;39.75;101733.66;5106573;27;20997;-64
2022/03/26 03:25:43;;;;;;;33.53;16.43;;;;;;;11.20;40.00;101730.28;5103698;28;20319;-63
2022/03/26 03:28:12;;;;;;;29.20;15.43;;;;;;;11.17;40.09;101729.69;5101483;28;20202;-64
2022/03/26 03:30:41;;;;;;;32.67;16.33;;;;;;;11.21;40.00;101739.09;5100185;27;20207;-64
2022/03/26 03:33:09;;;;;;;35.13;16.77;;;;;;;11.15;40.10;101729.81;5104068;27;20204;-64
2022/03/26 03:35:36;;;;;;;30.37;16.47;;;;;;;11.04;40.10;101734.28;5099328;28;20377;-64
2022/03/26 03:38:04;;;;;;;31.23;14.97;;;;;;;11.07;40.28;101744.66;5102154;28;20275;-64
2022/03/26 03:40:32;;;;;;;32.97;17.20;;;;;;;11.01;40.40;101742.47;5100966;28;20203;-64
2022/03/26 03:43:07;;;;;;;34.97;15.77;;;;;;;11.00;40.40;101743.44;5107227;28;20223;-66
2022/03/26 03:45:35;;;;;;;33.40;15.77;;;;;;;10.98;40.34;101740.91;5102484;28;20207;-65
2022/03/26 03:48:05;;;;;;;31.10;15.67;;;;;;;10.89;40.28;101737.16;5102684;27;20831;-66
2022/03/26 03:50:32;;;;;;;33.67;16.47;;;;;;;10.91;40.52;101744.97;5098175;28;20287;-65
2022/03/26 03:53:03;;;;;;;30.07;15.60;;;;;;;10.86;40.37;101742.72;5101738;28;20198;-64
2022/03/26 03:55:34;;;;;;;33.03;16.30;;;;;;;10.86;40.23;101742.72;5097430;28;20295;-64
2022/03/26 03:58:02;;;;;;;30.57;16.40;;;;;;;10.89;40.26;101747.78;5105788;28;20307;-64
2022/03/26 04:00:29;;;;;;;30.47;16.20;;;;;;;10.84;40.41;101744.63;5098614;28;20208;-64
2022/03/26 04:03:00;;;;;;;28.20;15.10;;;;;;;10.85;40.18;101743.66;5104992;28;20595;-66
2022/03/26 04:05:29;;;;;;;37.67;16.77;;;;;;;10.85;40.26;101754.28;5101063;28;20207;-65
2022/03/26 04:07:57;;;;;;;32.07;16.40;;;;;;;10.84;40.29;101752.59;5104243;28;20298;-64
2022/03/26 04:10:24;;;;;;;31.17;15.80;;;;;;;10.83;40.08;101758.84;5097951;28;20230;-65
2022/03/26 04:12:58;;;;;;;35.90;16.57;;;;;;;10.71;40.43;101754.50;5098455;28;20245;-64
2022/03/26 04:15:26;;;;;;;35.57;16.77;;;;;;;10.72;40.42;101758.88;5097134;28;20293;-65
2022/03/26 04:17:54;;;;;;;32.97;16.27;;;;;;;10.64;40.62;101758.59;5099559;27;20584;-63
2022/03/26 04:20:22;;;;;;;31.07;15.50;;;;;;;10.59;40.78;101766.06;5099129;28;20295;-64
2022/03/26 04:22:56;;;;;;;35.23;15.17;;;;;;;10.68;40.66;101760.03;5100554;27;20216;-65
2022/03/26 04:25:38;;;;;;;33.80;16.73;;;;;;;10.65;40.60;101764.72;5099190;28;20206;-65
2022/03/26 04:28:06;;;;;;;38.50;16.63;;;;;;;10.60;40.83;101759.78;5100655;28;20233;-64
2022/03/26 04:30:34;;;;;;;32.67;16.07;;;;;;;10.59;40.84;101766.06;5103187;27;20650;-65
2022/03/26 04:33:01;;;;;;;29.50;16.60;;;;;;;10.59;40.96;101762.56;5101696;27;20238;-65
2022/03/26 04:35:29;;;;;;;41.23;18.03;;;;;;;10.57;41.01;101767.97;5102293;27;20226;-65
2022/03/26 04:37:59;;;;;;;35.17;17.13;;;;;;;10.50;41.11;101770.25;5101137;28;20206;-65
2022/03/26 04:40:28;;;;;;;35.23;16.53;;;;;;;10.51;41.23;101769.28;5096932;28;20202;-64
2022/03/26 04:42:56;;;;;;;34.43;16.73;;;;;;;10.54;40.86;101773.53;5100415;28;20212;-64
2022/03/26 04:45:24;;;;;;;32.87;17.60;;;;;;;10.47;41.09;101775.78;5101573;28;20230;-65
2022/03/26 04:47:52;;;;;;;31.87;16.60;;;;;;;10.48;41.15;101776.63;5098792;28;20207;-64
2022/03/26 04:50:20;;;;;;;32.50;16.70;;;;;;;10.25;42.25;101777.50;5097345;28;20588;-64
2022/03/26 04:52:48;;;;;;;30.30;16.87;;;;;;;10.31;41.75;101772.59;5098189;28;20296;-64
2022/03/26 04:55:18;;;;;;;31.47;16.33;;;;;;;10.43;41.61;101770.84;5098706;28;20713;-64
2022/03/26 04:57:49;;;;;;;42.77;18.33;;;;;;;10.11;42.16;101781.97;5099981;28;20296;-65
2022/03/26 05:00:19;;;;;;;31.77;16.83;;;;;;;10.33;41.83;101775.97;5100479;28;20217;-65
2022/03/26 05:02:47;;;;;;;33.17;17.13;;;;;;;10.21;41.94;101789.28;5102094;28;20262;-65
2022/03/26 05:05:15;;;;;;;29.83;16.63;;;;;;;10.25;42.00;101777.50;5097682;28;20638;-64
2022/03/26 05:07:50;;;;;;;36.07;17.57;;;;;;;10.30;41.99;101785.94;5097696;28;20236;-65
2022/03/26 05:10:21;;;;;;;30.73;16.87;;;;;;;10.29;42.16;101787.75;5096110;28;20539;-64
2022/03/26 05:12:50;;;;;;;35.93;16.47;;;;;;;9.91;42.97;101795.88;5099622;28;20670;-65
2022/03/26 05:15:21;;;;;;;40.43;17.33;;;;;;;10.14;42.65;101791.53;5101182;28;20309;-65
2022/03/26 05:17:49;;;;;;;34.93;16.03;;;;;;;10.19;42.60;101794.72;5101468;28;20198;-66
2022/03/26 05:20:18;;;;;;;30.67;15.43;;;;;;;10.03;43.06;101789.66;5099565;28;20300;-65
2022/03/26 05:22:47;;;;;;;33.20;17.23;;;;;;;10.12;42.78;101788.97;5100156;28;20289;-63
2022/03/26 05:25:17;;;;;;;34.57;16.67;;;;;;;10.17;42.60;101792.19;5101847;28;20262;-64
2022/03/26 05:27:47;;;;;;;30.67;16.53;;;;;;;10.20;42.56;101796.44;5100974;28;20207;-65
2022/03/26 05:30:16;;;;;;;34.20;16.70;;;;;;;9.98;43.07;101799.75;5098518;28;20210;-65
2022/03/26 05:32:59;;;;;;;33.10;16.63;;;;;;;10.11;42.84;101792.59;5099422;28;20210;-65
2022/03/26 05:35:27;;;;;;;35.40;16.53;;;;;;;10.15;43.05;101794.06;5098476;28;20806;-65
2022/03/26 05:37:55;;;;;;;32.83;16.20;;;;;;;10.14;42.85;101792.38;5104530;27;20669;-64
2022/03/26 05:40:23;;;;;;;29.90;16.40;;;;;;;10.15;43.03;101799.38;5103742;28;20225;-65
2022/03/26 05:42:52;;;;;;;31.33;16.13;;;;;;;10.13;42.89;101798.63;5103416;28;20296;-65
2022/03/26 05:45:20;;;;;;;33.30;17.43;;;;;;;9.74;43.79;101812.13;5103831;27;20317;-64
2022/03/26 05:47:50;;;;;;;35.23;16.80;;;;;;;10.03;43.48;101805.56;5104992;27;20206;-65
2022/03/26 05:50:18;;;;;;;34.97;16.70;;;;;;;10.08;43.29;101808.72;5100241;28;20225;-65
2022/03/26 05:52:45;;;;;;;35.17;18.07;;;;;;;10.13;43.22;101824.28;5106912;27;20272;-65
2022/03/26 05:55:13;;;;;;;36.53;16.80;;;;;;;10.12;43.34;101822.59;5106142;28;20232;-63
2022/03/26 05:57:41;;;;;;;37.60;17.10;;;;;;;9.91;43.48;101824.16;5109863;27;20202;-64
2022/03/26 06:00:16;;;;;;;34.47;17.27;;;;;;;9.85;44.17;101821.97;5104803;27;20555;-63
2022/03/26 06:02:44;;;;;;;33.83;15.07;;;;;;;10.06;43.33;101826.53;5106204;27;20725;-64
2022/03/26 06:05:12;;;;;;;37.00;16.80;;;;;;;10.12;43.38;101828.75;5106397;28;20253;-64
2022/03/26 06:07:40;;;;;;;40.80;17.83;;;;;;;9.91;43.67;101827.66;5106359;27;20269;-65
2022/03/26 06:10:08;;;;;;;30.87;16.80;;;;;;;10.05;43.50;101824.00;5108626;28;20651;-65
2022/03/26 06:12:42;;;;;;;34.83;17.13;;;;;;;10.09;43.40;101823.69;5108598;28;20233;-64
2022/03/26 06:15:10;;;;;;;38.47;17.27;;;;;;;10.02;43.59;101835.69;5108774;28;20202;-65
2022/03/26 06:17:59;;;;;;;37.93;18.93;;;;;;;10.02;43.70;101843.66;5108265;28;20203;-65
2022/03/26 06:20:27;;;;;;;39.10;17.07;;;;;;;10.15;43.38;101841.78;5104650;27;21668;-65
2022/03/26 06:22:55;;;;;;;34.07;19.13;;;;;;;10.12;43.25;101855.25;5107649;27;20353;-65
2022/03/26 06:25:23;;;;;;;32.67;16.53;;;;;;;9.96;43.47;101852.03;5110560;27;20229;-65
2022/03/26 06:27:51;;;;;;;33.37;17.03;;;;;;;10.10;43.67;101854.53;5107873;27;20243;-65
2022/03/26 06:30:19;;;;;;;36.23;17.30;;;;;;;10.07;43.78;101849.44;5106695;28;20210;-65
2022/03/26 06:32:48;;;;;;;38.13;18.00;;;;;;;10.14;43.80;101849.84;5111774;28;20281;-65
2022/03/26 06:35:17;;;;;;;32.77;15.73;;;;;;;10.27;43.43;101852.47;5101407;28;20210;-65
2022/03/26 06:37:45;;;;;;;34.97;16.70;;;;;;;10.27;43.60;101857.78;5105609;28;20648;-62
2022/03/26 06:40:13;;;;;;;35.57;17.43;;;;;;;10.27;43.54;101852.47;5098157;28;20349;-64
2022/03/26 06:42:41;;;;;;;34.63;18.07;;;;;;;10.39;43.59;101854.22;5118113;27;20205;-64
2022/03/26 06:45:09;;;;;;;31.63;17.07;;;;;;;10.39;43.41;101860.38;5102756;27;20248;-63
2022/03/26 06:47:37;;;;;;;31.07;16.90;;;;;;;10.46;43.24;101861.63;5109668;28;20289;-64
2022/03/26 06:50:06;;;;;;;32.80;17.03;;;;;;;10.50;43.50;101851.63;5101980;28;20205;-68
2022/03/26 06:52:35;;;;;;;38.60;17.90;;;;;;;10.43;43.74;101855.69;5091901;28;20294;-66
2022/03/26 06:55:07;;;;;;;37.00;17.47;;;;;;;10.53;43.52;101852.25;5113204;27;20752;-65
2022/03/26 06:57:36;;;;;;;37.30;17.17;;;;;;;10.58;43.66;101849.25;5116581;27;20221;-66
2022/03/26 07:00:05;;;;;;;32.60;17.97;;;;;;;10.42;43.98;101851.34;5110458;28;20206;-66
2022/03/26 07:02:33;;;;;;;32.57;17.57;;;;;;;10.47;43.72;101859.78;5097152;28;21111;-66
2022/03/26 07:05:01;;;;;;;33.73;16.77;;;;;;;10.23;44.81;101869.56;5112087;28;20569;-64
2022/03/26 07:07:28;;;;;;;34.93;17.57;;;;;;;10.45;44.26;101862.59;5108932;28;20317;-66
2022/03/26 07:09:58;;;;;;;34.80;16.90;;;;;;;10.68;44.08;101866.16;5099986;28;20212;-65
2022/03/26 07:12:26;;;;;;;33.03;17.23;;;;;;;10.66;44.23;101873.38;5110094;27;20295;-63
2022/03/26 07:14:54;;;;;;;37.30;17.80;;;;;;;10.74;43.98;101876.31;5106879;28;20207;-64
2022/03/26 07:17:22;;;;;;;35.67;17.67;;;;;;;10.85;43.68;101876.34;5112911;27;20612;-65
2022/03/26 07:19:51;;;;;;;34.17;17.67;;;;;;;11.00;43.57;101870.84;5106435;28;20229;-65
2022/03/26 07:22:32;;;;;;;31.00;16.90;;;;;;;11.04;43.10;101874.97;5102881;28;20207;-64
2022/03/26 07:25:02;;;;;;;36.83;19.03;;;;;;;11.06;43.29;101875.69;5106396;28;20231;-65
2022/03/26 07:27:31;;;;;;;39.63;17.70;;;;;;;10.97;44.08;101865.78;5096396;28;20207;-65
2022/03/26 07:29:59;;;;;;;37.77;17.80;;;;;;;11.15;43.48;101873.19;5109276;28;20635;-64
2022/03/26 07:32:27;;;;;;;33.83;18.37;;;;;;;11.04;44.46;101872.31;5105333;28;20262;-65
2022/03/26 07:34:55;;;;;;;34.40;18.43;;;;;;;11.25;44.00;101873.31;5109613;28;20203;-65
2022/03/26 07:37:23;;;;;;;34.87;16.93;;;;;;;11.36;43.88;101873.31;5086983;27;20243;-64
2022/03/26 07:39:51;;;;;;;36.83;17.10;;;;;;;11.44;44.04;101875.38;5085361;28;20563;-66
2022/03/26 07:42:20;;;;;;;36.83;17.50;;;;;;;11.24;44.07;101869.81;5084964;28;20212;-65
2022/03/26 07:44:48;;;;;;;36.30;18.13;;;;;;;11.52;43.83;101878.31;5086051;28;20202;-67
2022/03/26 07:47:16;;;;;;;33.07;18.23;;;;;;;11.63;43.93;101871.16;5087267;28;20220;-65
2022/03/26 07:49:43;;;;;;;34.43;18.10;;;;;;;11.74;43.33;101880.09;5083555;28;20298;-65
2022/03/26 07:52:11;;;;;;;36.43;18.87;;;;;;;11.82;43.46;101888.34;5086261;28;20216;-65
2022/03/26 07:54:39;;;;;;;38.20;18.70;;;;;;;11.83;43.49;101885.56;5083732;28;20293;-64
2022/03/26 07:57:07;;;;;;;38.07;19.07;;;;;;;11.97;43.33;101884.44;5086011;28;20308;-64
2022/03/26 07:59:36;;;;;;;38.13;18.43;;;;;;;12.05;43.27;101892.66;5084489;28;20202;-65
2022/03/26 08:02:04;;;;;;;35.33;18.27;;;;;;;12.19;43.42;101894.22;5084067;28;20207;-65
2022/03/26 08:04:32;;;;;;;37.47;19.10;;;;;;;12.22;43.53;101893.97;5084501;28;20202;-65
2022/03/26 08:07:00;;;;;;;46.80;21.10;;;;;;;12.27;42.99;101891.78;5091820;28;20341;-64
2022/03/26 08:09:28;;;;;;;39.33;20.00;;;;;;;12.32;42.77;101889.56;5084456;28;20569;-66
2022/03/26 08:11:56;;;;;;;37.43;19.77;;;;;;;12.44;42.44;101894.75;5086105;28;20297;-63
2022/03/26 08:14:23;;;;;;;33.97;19.23;;;;;;;12.39;42.41;101902.28;5086027;28;20210;-66
2022/03/26 08:16:53;;;;;;;34.97;19.80;;;;;;;12.46;42.87;101904.44;5084513;28;20265;-65
2022/03/26 08:19:24;;;;;;;39.97;20.20;;;;;;;12.73;42.00;101899.50;5081184;28;20240;-64
2022/03/26 08:21:51;;;;;;;40.47;20.03;;;;;;;12.89;41.96;101899.06;5078615;28;20216;-65
2022/03/26 08:24:19;;;;;;;38.30;20.40;;;;;;;13.07;41.91;101909.00;5086352;28;20207;-64
2022/03/26 08:26:47;;;;;;;39.07;19.77;;;;;;;13.18;41.67;101901.00;5085161;28;20219;-63
2022/03/26 08:29:15;;;;;;;36.03;19.40;;;;;;;13.46;41.21;101904.78;5084380;28;20209;-64
2022/03/26 08:31:49;;;;;;;38.23;20.07;;;;;;;15.47;37.90;101907.91;5083383;28;20707;-64
2022/03/26 08:34:20;;;;;;;39.57;20.30;;;;;;;20.77;29.43;101901.50;5081164;28;20642;-64
2022/03/26 08:36:48;;;;;;;37.70;20.33;;;;;;;24.84;24.36;101900.25;5095202;28;20235;-63
2022/03/26 08:39:16;;;;;;;39.53;20.47;;;;;;;26.47;21.96;101891.97;5103093;27;20233;-67
2022/03/26 08:41:45;;;;;;;36.17;19.97;;;;;;;27.39;20.83;101893.13;5107218;27;20201;-64
2022/03/26 08:44:14;;;;;;;38.00;20.77;;;;;;;27.84;20.60;101893.69;5107541;28;20205;-64
2022/03/26 08:46:49;;;;;;;47.03;21.40;;;;;;;29.01;19.59;101907.81;5108228;27;20217;-63
2022/03/26 08:49:18;;;;;;;36.47;21.27;;;;;;;29.56;18.77;101900.94;5107167;28;20302;-65
2022/03/26 08:51:46;;;;;;;430.50;47.37;;;;;;;29.55;19.10;101903.94;5104676;28;20206;-63
2022/03/26 08:54:14;;;;;;;38.53;21.50;;;;;;;30.71;18.17;101894.50;5109033;28;20269;-65
2022/03/26 08:56:42;;;;;;;33.43;20.97;;;;;;;31.22;17.76;101892.63;5109110;28;20210;-65
2022/03/26 08:59:10;;;;;;;38.88;21.92;;;;;;;31.35;17.40;101892.25;5105257;28;20662;-66
2022/03/26 09:01:38;;;;;;;38.30;23.63;;;;;;;32.03;16.89;101894.53;5107111;28;20212;-65
2022/03/26 09:04:06;;;;;;;39.88;23.67;;;;;;;32.49;16.61;101893.16;5102945;28;20542;-65
2022/03/26 09:06:35;;;;;;;36.80;25.13;;;;;;;32.47;16.69;101895.31;5101834;28;20441;-63
2022/03/26 09:09:04;;;;;;;30.48;21.85;;;;;;;33.19;16.25;101891.28;5100764;28;20206;-64
2022/03/26 09:11:34;;;;;;;33.25;22.98;;;;;;;33.46;16.48;101888.44;5106001;27;20210;-64
2022/03/26 09:14:02;;;;;;;33.05;23.27;;;;;;;33.59;15.86;101890.72;5108907;27;20202;-67
2022/03/26 09:16:30;;;;;;;32.38;23.88;;;;;;;34.21;14.79;101887.13;5107324;27;20202;-68
2022/03/26 09:18:58;;;;;;;33.25;23.42;;;;;;;35.09;14.41;101890.53;5104775;27;20289;-68
2022/03/26 09:21:27;;;;;;;33.05;23.73;;;;;;;34.39;15.00;101881.13;5112718;27;20229;-68
2022/03/26 09:23:56;;;;;;;31.80;23.88;;;;;;;34.78;15.14;101888.88;5100684;28;20230;-67
2022/03/26 09:26:24;;;;;;;34.70;24.45;;;;;;;36.12;14.07;101878.88;5117966;27;20653;-68
2022/03/26 09:28:51;;;;;;;32.42;23.58;;;;;;;35.74;14.00;101884.03;5122204;27;20854;-67
2022/03/26 09:31:19;;;;;;;37.97;24.95;;;;;;;31.86;16.93;101892.97;5113495;28;20253;-67
2022/03/26 09:33:48;;;;;;;28.58;23.55;;;;;;;28.03;19.91;101900.81;5093136;28;20294;-68
2022/03/26 09:36:16;;;;;;;35.10;25.15;;;;;;;29.04;18.81;101899.13;5112093;28;20284;-67
2022/03/26 09:38:43;;;;;;;31.25;23.73;;;;;;;29.26;18.91;101889.31;5106351;28;20601;-68
2022/03/26 09:41:13;;;;;;;33.70;25.85;;;;;;;31.57;17.26;101895.88;5110132;28;20227;-68
2022/03/26 09:43:41;;;;;;;38.40;24.95;;;;;;;31.56;17.17;101888.72;5113258;28;20241;-68
2022/03/26 09:46:09;;;;;;;37.10;23.75;;;;;;;32.96;16.25;101884.25;5109813;27;20667;-68
2022/03/26 09:48:38;;;;;;;34.97;25.23;;;;;;;32.27;16.64;101877.84;5092864;28;20211;-67
2022/03/26 09:51:06;;;;;;;38.50;24.30;;;;;;;30.84;18.19;101885.97;5100301;28;20297;-64
2022/03/26 09:53:35;;;;;;;42.53;24.10;;;;;;;32.73;17.28;101879.09;5108382;27;20285;-64
2022/03/26 09:56:03;;;;;;;28.90;24.70;;;;;;;25.70;22.41;101887.47;5104875;28;20292;-65
2022/03/26 09:58:32;;;;;;;36.67;24.20;;;;;;;28.70;20.57;101885.16;5113332;27;20414;-66
2022/03/26 10:00:59;;;;;;;31.25;24.30;;;;;;;33.89;15.95;101874.34;5118919;27;20308;-66
2022/03/26 10:03:27;;;;;;;35.72;25.15;;;;;;;29.80;18.66;101874.41;5112412;28;20208;-66
2022/03/26 10:06:02;;;;;;;35.20;25.05;;;;;;;29.92;18.96;101874.34;5113859;28;20202;-66
2022/03/26 10:08:35;;;;;;;40.70;27.67;;;;;;;29.79;19.35;101871.91;5109231;28;20265;-65
2022/03/26 10:11:03;;;;;;;35.25;25.27;;;;;;;31.18;17.20;101867.63;5117972;27;20255;-66
2022/03/26 10:13:38;;;;;;;36.25;25.98;;;;;;;28.35;19.83;101870.59;5111196;28;20224;-66
2022/03/26 10:16:08;;;;;;;32.83;26.23;;;;;;;27.49;21.09;101876.25;5120024;27;20336;-64
2022/03/26 10:18:48;;;;;;;36.58;26.42;;;;;;;25.35;22.73;101872.50;5110763;28;20206;-64
2022/03/26 10:21:17;;;;;;;35.75;26.15;;;;;;;22.89;26.47;101874.50;5111746;27;20205;-65
2022/03/26 10:23:46;;;;;;;38.25;26.95;;;;;;;26.47;22.97;101867.50;5103226;27;20296;-65
2022/03/26 10:26:15;;;;;;;44.72;26.05;;;;;;;28.31;19.88;101864.78;5109252;28;20210;-65
2022/03/26 10:28:52;;;;;;;33.15;25.70;;;;;;;25.58;23.47;101862.00;5108128;28;20230;-67
2022/03/26 10:34:10;;;;;;;36.22;24.75;;;;;;;23.24;25.94;101858.31;5106598;28;20210;-66
2022/03/26 10:36:41;;;;;;;31.80;23.65;;;;;;;23.90;25.47;101854.13;5106258;27;20645;-65
2022/03/26 10:39:15;;;;;;;38.10;25.02;;;;;;;24.55;24.27;101859.94;5105651;28;20199;-67
2022/03/26 10:41:43;;;;;;;34.08;22.45;;;;;;;25.14;22.63;101851.88;5107733;28;20229;-63
2022/03/26 10:44:14;;;;;;;34.55;24.08;;;;;;;28.72;20.42;101847.56;5105981;27;20208;-62
2022/03/26 10:46:44;;;;;;;30.25;22.33;;;;;;;27.75;19.72;101845.16;5105544;27;20747;-61
2022/03/26 10:49:13;;;;;;;36.65;22.25;;;;;;;28.95;18.89;101841.31;5105018;27;20214;-62
2022/03/26 10:52:05;;;;;;;31.67;23.33;;;;;;;30.22;17.55;101842.16;5105175;27;20202;-61
2022/03/26 10:54:34;;;;;;;32.53;21.50;;;;;;;28.23;17.97;101846.03;5105540;27;20209;-64
2022/03/26 10:57:02;;;;;;;26.33;20.13;;;;;;;30.70;15.36;101838.06;5103639;27;20246;-61
2022/03/26 10:59:32;;;;;;;33.13;20.77;;;;;;;24.85;20.58;101839.53;5102935;27;20301;-63
2022/03/26 11:02:01;;;;;;;31.52;20.13;;;;;;;22.87;22.14;101844.09;5104511;28;20198;-64
2022/03/26 11:04:29;;;;;;;31.15;19.60;;;;;;;21.99;23.87;101844.44;5112133;27;20296;-66
2022/03/26 11:06:58;;;;;;;30.40;19.92;;;;;;;21.73;24.21;101849.47;5104896;28;20236;-66
2022/03/26 11:09:26;;;;;;;28.10;18.80;;;;;;;21.44;24.33;101839.56;5105047;28;20262;-66
2022/03/26 11:11:57;;;;;;;26.95;18.20;;;;;;;21.22;23.94;101833.19;5104118;28;20274;-67
2022/03/26 11:14:30;;;;;;;30.63;20.80;;;;;;;20.98;23.83;101828.03;5107445;28;20206;-68
2022/03/26 11:17:18;;;;;;;30.55;18.92;;;;;;;20.93;24.78;101830.44;5106003;28;20255;-64
2022/03/26 11:20:15;;;;;;;37.25;20.15;;;;;;;20.55;25.98;101838.53;5104767;27;20210;-63
2022/03/26 11:22:58;;;;;;;35.67;21.65;;;;;;;20.40;26.40;101834.94;5105730;28;20212;-61